Navarro, CA (95463)

5:58 PM PST on November 27, 2014 (GMT -0800)
Angel Camp Vineyard | Change Station
CLOSE
Current Station
Personal Weather Station
Location: Philo, CA
Elevation: 341 ft
Nearby Weather Stations

Elev 341 ft 39.10 °N, 123.49 °W | Updated 4 minutes ago

Partly Cloudy
Partly Cloudy
56.2 °F
Feels Like 56.2 °F
N
2.0
Wind Variable Wind from NNW
Gusts 4.0 mph

Today
High -- | Low -- °F
--% Chance of Precip.
Yesterday
High -- | Low -- °F
Precip. -- in
7:10 AM 4:53 PM
Waxing Crescent, 35% visible
Pressure 30.04 in
Visibility 10.0 miles
Clouds Clear
Dew Point 53 °F
Humidity 90%
Rainfall 0.00 in
Snow Depth Not available.
UV 0 out of 12
Pollen 1.40 out of 12
Air Quality Not available.
Flu Activity Not available.
METAR KUKI 280056Z AUTO 35003KT 10SM CLR 14/07 A3004 RMK AO2 SLP170 T01440072

More Conditions Fewer Conditions

Pressure 30.04 in
Visibility 10.0 miles
Clouds Clear
Dew Point 53 °F
Humidity 90%
Rainfall 0.00 in
Snow Depth Not available.
UV 0 out of 12
Pollen 1.40 out of 12
Air Quality Not available.
Flu Activity Not available.
METAR KUKI 280056Z AUTO 35003KT 10SM CLR 14/07 A3004 RMK AO2 SLP170 T01440072

More Conditions Fewer Conditions

10-Day Weather Forecast

Almanac

Astronomy

Nov. 27, 2014 Rise Set
Actual Time
Civil Twilight
Nautical Twilight
Astronomical Twilight
Moon
Length of Visible Light
Length of Day
Tomorrow will be .
, % of the Moon is Illuminated

Today's Extremes

State Highs State Lows

Community

WunderPhotos

Upload Photos

1,774,151 photos uploaded!

WunderBlogs® & News

Nearby

Air Quality

  Air Quality AQ Index Pollutant
Not available.

Snow Depth

Station Depth Elevation

Earthquake Activity

City Distance Mag. Time & Date
Minimum magnitude displayed is 2.5.

Coastal Water Temperatures

Place Temperature

Nearby Weather Stations